createdAt,value
2017-10-24T00:00:56.229Z,10.25
2017-10-24T00:01:56.195Z,10.28
2017-10-24T00:02:56.167Z,10.22
2017-10-24T00:03:56.114Z,10.30
2017-10-24T00:04:56.082Z,10.23
2017-10-24T00:05:56.052Z,10.34
2017-10-24T00:06:56.001Z,10.20
2017-10-24T00:07:55.962Z,10.19
2017-10-24T00:08:55.931Z,10.31
2017-10-24T00:09:55.892Z,10.30
2017-10-24T00:10:55.851Z,10.35
2017-10-24T00:11:55.813Z,10.34
2017-10-24T00:12:55.790Z,10.30
2017-10-24T00:13:55.741Z,10.33
2017-10-24T00:14:55.699Z,10.34
2017-10-24T00:15:55.662Z,10.35
2017-10-24T00:16:55.626Z,10.38
2017-10-24T00:17:55.588Z,10.33
2017-10-24T00:18:55.550Z,10.31
2017-10-24T00:19:55.527Z,10.35
2017-10-24T00:20:55.472Z,10.31
2017-10-24T00:21:56.341Z,10.31
2017-10-24T00:22:55.398Z,10.30
2017-10-24T00:23:55.363Z,10.26
2017-10-24T00:24:55.331Z,10.33
2017-10-24T00:25:55.287Z,10.33
2017-10-24T00:26:55.248Z,10.30
2017-10-24T00:27:55.209Z,10.30
2017-10-24T00:28:55.172Z,10.38
2017-10-24T00:29:55.143Z,10.31
2017-10-24T00:30:55.115Z,10.38
2017-10-24T00:31:55.075Z,10.33
2017-10-24T00:32:55.029Z,10.38
2017-10-24T00:33:54.983Z,10.49
2017-10-24T00:34:54.945Z,10.37
2017-10-24T00:35:54.985Z,10.46
2017-10-24T00:36:54.872Z,10.35
2017-10-24T00:37:54.845Z,10.48
2017-10-24T00:38:54.795Z,10.48
2017-10-24T00:39:54.758Z,10.56
2017-10-24T00:40:54.721Z,10.53
2017-10-24T00:41:54.685Z,10.61
2017-10-24T00:42:54.652Z,10.57
2017-10-24T00:43:54.616Z,10.57
2017-10-24T00:44:54.578Z,10.57
2017-10-24T00:45:54.537Z,10.60
2017-10-24T00:46:54.510Z,10.51
2017-10-24T00:47:54.462Z,10.53
2017-10-24T00:48:54.421Z,10.54
2017-10-24T00:49:54.396Z,10.56
2017-10-24T00:50:54.346Z,10.48
2017-10-24T00:51:54.310Z,10.37
2017-10-24T00:52:54.269Z,10.48
2017-10-24T00:53:54.252Z,10.38
2017-10-24T00:54:54.208Z,10.44
2017-10-24T00:55:54.161Z,10.37
2017-10-24T00:56:54.120Z,10.37
2017-10-24T00:57:54.100Z,10.31
2017-10-24T00:58:54.046Z,10.30
2017-10-24T00:59:54.022Z,10.38
2017-10-24T01:00:53.978Z,10.37
2017-10-24T01:01:53.942Z,10.40
2017-10-24T01:02:53.902Z,10.31
2017-10-24T01:03:53.867Z,10.33
2017-10-24T01:04:53.826Z,10.38
2017-10-24T01:05:53.791Z,10.35
2017-10-24T01:06:53.759Z,10.37
2017-10-24T01:07:53.706Z,10.38
2017-10-24T01:08:53.685Z,10.38
2017-10-24T01:09:53.650Z,10.25
2017-10-24T01:10:53.615Z,10.37
2017-10-24T01:11:53.557Z,10.34
2017-10-24T01:12:53.525Z,10.31
2017-10-24T01:13:53.491Z,10.22
2017-10-24T01:14:53.443Z,10.35
2017-10-24T01:15:53.409Z,10.19
2017-10-24T01:16:53.372Z,10.23
2017-10-24T01:17:53.332Z,10.30
2017-10-24T01:18:53.295Z,10.20
2017-10-24T01:19:53.260Z,10.19
2017-10-24T01:20:53.221Z,10.20
2017-10-24T01:21:53.179Z,10.17
2017-10-24T01:22:53.147Z,10.15
2017-10-24T01:23:53.108Z,10.07
2017-10-24T01:24:53.073Z,10.12
2017-10-24T01:25:53.031Z,10.09
2017-10-24T01:26:53.004Z,10.04
2017-10-24T01:27:52.952Z,10.10
2017-10-24T01:28:52.922Z,10.10
2017-10-24T01:29:52.881Z,10.05
2017-10-24T01:30:52.849Z,9.97
2017-10-24T01:31:52.816Z,9.95
2017-10-24T01:32:52.769Z,9.84
2017-10-24T01:33:52.731Z,9.79
2017-10-24T01:34:52.691Z,9.79
2017-10-24T01:35:52.655Z,9.73
2017-10-24T01:36:52.618Z,9.68
2017-10-24T01:37:52.579Z,9.66
2017-10-24T01:38:52.542Z,9.72
2017-10-24T01:39:52.504Z,9.79
2017-10-24T01:40:52.503Z,9.74
2017-10-24T01:41:52.428Z,9.79
2017-10-24T01:42:52.391Z,9.79
2017-10-24T01:43:52.358Z,9.82
2017-10-24T01:44:52.313Z,9.87
2017-10-24T01:45:52.316Z,9.89
2017-10-24T01:46:52.238Z,9.83
2017-10-24T01:47:52.211Z,9.84
2017-10-24T01:48:52.184Z,9.84
2017-10-24T01:49:52.154Z,9.83
2017-10-24T01:50:52.092Z,9.80
2017-10-24T01:51:52.053Z,9.80
2017-10-24T01:52:52.018Z,9.86
2017-10-24T01:53:52.010Z,9.82
2017-10-24T01:54:51.954Z,9.79
2017-10-24T01:55:51.907Z,9.65
2017-10-24T01:56:51.863Z,9.69
2017-10-24T01:57:51.834Z,9.68
2017-10-24T01:58:51.794Z,9.68
2017-10-24T01:59:51.755Z,9.68
2017-10-24T02:00:51.712Z,9.68
2017-10-24T02:01:51.676Z,9.59
2017-10-24T02:02:51.633Z,9.59
2017-10-24T02:03:51.602Z,9.59
2017-10-24T02:04:51.561Z,9.54
2017-10-24T02:05:51.523Z,9.54
2017-10-24T02:06:51.482Z,9.58
2017-10-24T02:07:51.442Z,9.50
2017-10-24T02:08:51.416Z,9.48
2017-10-24T02:09:51.370Z,9.58
2017-10-24T02:10:51.329Z,9.48
2017-10-24T02:11:51.291Z,9.47
2017-10-24T02:12:51.254Z,9.46
2017-10-24T02:13:51.216Z,9.46
2017-10-24T02:14:51.191Z,9.54
2017-10-24T02:15:51.155Z,9.47
2017-10-24T02:16:51.110Z,9.47
2017-10-24T02:17:51.072Z,9.48
2017-10-24T02:18:51.040Z,9.48
2017-10-24T02:19:50.990Z,9.48
2017-10-24T02:20:50.952Z,9.51
2017-10-24T02:21:50.915Z,9.46
2017-10-24T02:22:50.886Z,9.47
2017-10-24T02:23:50.853Z,9.34
2017-10-24T02:24:50.799Z,9.40
2017-10-24T02:25:50.764Z,9.34
2017-10-24T02:26:50.731Z,9.36
2017-10-24T02:27:50.687Z,9.34
2017-10-24T02:28:50.648Z,9.29
2017-10-24T02:29:50.610Z,9.26
2017-10-24T02:30:50.586Z,9.31
2017-10-24T02:31:50.533Z,9.22
2017-10-24T02:32:50.496Z,9.18
2017-10-24T02:33:50.456Z,9.14
2017-10-24T02:34:50.419Z,9.14
2017-10-24T02:35:50.381Z,9.14
2017-10-24T02:36:50.348Z,9.03
2017-10-24T02:37:50.310Z,9.13
2017-10-24T02:38:50.270Z,9.18
2017-10-24T02:39:50.233Z,9.18
2017-10-24T02:40:50.190Z,9.18
2017-10-24T02:41:50.159Z,9.25
2017-10-24T02:42:50.114Z,9.28
2017-10-24T02:43:50.089Z,9.41
2017-10-24T02:44:50.040Z,9.36
2017-10-24T02:45:50.035Z,9.47
2017-10-24T02:46:49.969Z,9.58
2017-10-24T02:47:50.018Z,9.61
2017-10-24T02:48:49.887Z,9.72
2017-10-24T02:49:49.853Z,9.73
2017-10-24T02:50:49.810Z,9.84
2017-10-24T02:51:49.776Z,9.77
2017-10-24T02:52:49.739Z,9.79
2017-10-24T02:53:49.698Z,9.95
2017-10-24T02:54:49.664Z,9.94
2017-10-24T02:55:49.624Z,9.97
2017-10-24T02:56:49.586Z,9.99
2017-10-24T02:57:49.544Z,10.01
2017-10-24T02:58:49.508Z,10.10
2017-10-24T02:59:49.472Z,10.05
2017-10-24T03:00:49.441Z,9.97
2017-10-24T03:01:49.395Z,10.10
2017-10-24T03:02:49.361Z,9.92
2017-10-24T03:03:49.318Z,10.05
2017-10-24T03:04:49.289Z,9.98
2017-10-24T03:05:49.243Z,9.95
2017-10-24T03:06:49.207Z,9.76
2017-10-24T03:07:49.168Z,9.91
2017-10-24T03:08:49.139Z,9.89
2017-10-24T03:09:49.092Z,9.79
2017-10-24T03:10:49.050Z,9.69
2017-10-24T03:11:49.017Z,9.51
2017-10-24T03:12:48.978Z,9.47
2017-10-24T03:13:48.942Z,9.58
2017-10-24T03:14:48.910Z,9.48
2017-10-24T03:15:48.867Z,9.44
2017-10-24T03:16:48.827Z,9.44
2017-10-24T03:17:48.789Z,9.48
2017-10-24T03:18:48.759Z,9.50
2017-10-24T03:19:48.718Z,9.51
2017-10-24T03:20:48.676Z,9.62
2017-10-24T03:21:48.638Z,9.64
2017-10-24T03:22:48.604Z,9.76
2017-10-24T03:23:48.565Z,9.69
2017-10-24T03:24:48.526Z,9.68
2017-10-24T03:25:48.490Z,9.66
2017-10-24T03:26:48.462Z,9.77
2017-10-24T03:27:48.410Z,9.86
2017-10-24T03:28:48.375Z,9.89
2017-10-24T03:29:48.340Z,9.94
2017-10-24T03:30:48.305Z,9.99
2017-10-24T03:31:48.265Z,9.99
2017-10-24T03:32:48.225Z,10.01
2017-10-24T03:33:48.189Z,10.05
2017-10-24T03:34:48.154Z,10.04
2017-10-24T03:35:48.113Z,9.99
2017-10-24T03:36:48.074Z,9.95
2017-10-24T03:37:48.035Z,9.98
2017-10-24T03:38:48.005Z,9.97
2017-10-24T03:39:47.963Z,9.89
2017-10-24T03:40:47.923Z,9.83
2017-10-24T03:41:47.906Z,9.95
2017-10-24T03:42:47.850Z,9.99
2017-10-24T03:43:47.813Z,10.05
2017-10-24T03:44:47.775Z,10.10
2017-10-24T03:45:47.735Z,10.07
2017-10-24T03:46:47.705Z,10.07
2017-10-24T03:47:47.673Z,10.04
2017-10-24T03:48:47.631Z,10.04
2017-10-24T03:49:47.587Z,10.04
2017-10-24T03:50:47.548Z,10.02
2017-10-24T03:51:47.509Z,10.07
2017-10-24T03:52:47.472Z,9.97
2017-10-24T03:53:47.438Z,10.01
2017-10-24T03:54:47.395Z,9.94
2017-10-24T03:55:47.361Z,9.91
2017-10-24T03:56:47.327Z,9.91
2017-10-24T03:57:47.286Z,9.87
2017-10-24T03:58:47.246Z,9.89
2017-10-24T03:59:47.210Z,9.94
2017-10-24T04:00:47.170Z,9.89
2017-10-24T04:01:47.142Z,9.89
2017-10-24T04:02:47.096Z,9.94
2017-10-24T04:03:47.066Z,9.95
2017-10-24T04:04:47.022Z,9.89
2017-10-24T04:05:46.984Z,9.95
2017-10-24T04:06:46.945Z,9.87
2017-10-24T04:07:46.907Z,9.87
2017-10-24T04:08:46.871Z,9.82
2017-10-24T04:09:46.833Z,9.74
2017-10-24T04:10:46.797Z,9.77
2017-10-24T04:11:46.785Z,9.80
2017-10-24T04:12:46.728Z,9.74
2017-10-24T04:13:46.690Z,9.69
2017-10-24T04:14:46.644Z,9.68
2017-10-24T04:15:46.608Z,9.62
2017-10-24T04:16:46.581Z,9.62
2017-10-24T04:17:46.537Z,9.61
2017-10-24T04:18:46.492Z,9.62
2017-10-24T04:19:46.457Z,9.47
2017-10-24T04:20:46.419Z,9.55
2017-10-24T04:21:46.401Z,9.51
2017-10-24T04:22:46.348Z,9.47
2017-10-24T04:23:46.316Z,9.58
2017-10-24T04:24:46.268Z,9.61
2017-10-24T04:25:46.230Z,9.61
2017-10-24T04:26:46.194Z,9.58
2017-10-24T04:27:46.167Z,9.50
2017-10-24T04:28:46.121Z,9.54
2017-10-24T04:29:46.088Z,9.50
2017-10-24T04:30:46.046Z,9.54
2017-10-24T04:31:46.005Z,9.61
2017-10-24T04:32:46.005Z,9.47
2017-10-24T04:33:45.930Z,9.44
2017-10-24T04:34:45.899Z,9.48
2017-10-24T04:35:45.856Z,9.46
2017-10-24T04:36:45.818Z,9.54
2017-10-24T04:37:45.780Z,9.61
2017-10-24T04:38:45.742Z,9.54
2017-10-24T04:39:45.701Z,9.58
2017-10-24T04:40:45.673Z,9.61
2017-10-24T04:41:45.630Z,9.64
2017-10-24T04:42:45.591Z,9.73
2017-10-24T04:43:45.556Z,9.69
2017-10-24T04:44:45.515Z,9.66
2017-10-24T04:45:45.479Z,9.66
2017-10-24T04:46:45.439Z,9.68
2017-10-24T04:47:45.405Z,9.64
2017-10-24T04:48:45.363Z,9.56
2017-10-24T04:49:45.325Z,9.54
2017-10-24T04:50:45.292Z,9.43
2017-10-24T04:51:45.254Z,9.64
2017-10-24T04:52:45.217Z,9.47
2017-10-24T04:53:45.177Z,9.50
2017-10-24T04:54:45.144Z,9.55
2017-10-24T04:55:45.109Z,9.62
2017-10-24T04:56:45.063Z,9.61
2017-10-24T04:57:45.025Z,9.69
2017-10-24T04:58:44.992Z,9.66
2017-10-24T04:59:44.951Z,9.69
2017-10-24T05:00:44.913Z,9.66
2017-10-24T05:01:44.880Z,9.66
2017-10-24T05:02:44.849Z,9.79
2017-10-24T05:03:44.802Z,9.76
2017-10-24T05:04:44.762Z,9.79
2017-10-24T05:05:44.726Z,9.82
2017-10-24T05:06:44.695Z,9.76
2017-10-24T05:07:44.658Z,9.76
2017-10-24T05:08:44.611Z,9.76
2017-10-24T05:09:44.588Z,9.80
2017-10-24T05:10:44.538Z,9.72
2017-10-24T05:11:44.499Z,9.68
2017-10-24T05:12:44.460Z,9.76
2017-10-24T05:13:44.427Z,9.83
2017-10-24T05:14:44.389Z,9.77
2017-10-24T05:15:44.349Z,9.76
2017-10-24T05:16:44.311Z,9.82
2017-10-24T05:17:44.283Z,9.79
2017-10-24T05:18:44.244Z,9.77
2017-10-24T05:19:44.203Z,9.91
2017-10-24T05:20:44.161Z,9.99
2017-10-24T05:21:44.122Z,9.98
2017-10-24T05:22:44.083Z,9.97
2017-10-24T05:23:44.056Z,10.02
2017-10-24T05:24:44.013Z,9.82
2017-10-24T05:25:43.975Z,9.91
2017-10-24T05:26:43.933Z,9.95
2017-10-24T05:27:43.895Z,9.97
2017-10-24T05:28:43.869Z,9.94
2017-10-24T05:29:43.826Z,9.97
2017-10-24T05:30:43.785Z,9.95
2017-10-24T05:31:43.752Z,9.97
2017-10-24T05:32:43.713Z,9.98
2017-10-24T05:33:43.674Z,9.98
2017-10-24T05:34:43.634Z,9.97
2017-10-24T05:35:43.612Z,10.09
2017-10-24T05:36:43.562Z,10.09
2017-10-24T05:37:43.527Z,10.05
2017-10-24T05:38:43.484Z,10.04
2017-10-24T05:39:43.445Z,10.09
2017-10-24T05:40:43.405Z,10.15
2017-10-24T05:41:43.372Z,10.07
2017-10-24T05:42:43.333Z,10.15
2017-10-24T05:43:43.301Z,10.17
2017-10-24T05:44:43.263Z,10.16
2017-10-24T05:45:43.223Z,10.10
2017-10-24T05:46:43.188Z,10.22
2017-10-24T05:47:43.146Z,10.13
2017-10-24T05:48:43.107Z,10.19
2017-10-24T05:49:43.071Z,10.22
2017-10-24T05:50:43.031Z,10.25
2017-10-24T05:51:42.995Z,10.28
2017-10-24T05:52:42.963Z,10.25
2017-10-24T05:53:42.923Z,10.37
2017-10-24T05:54:42.883Z,10.31
2017-10-24T05:55:42.848Z,10.33
2017-10-24T05:56:42.808Z,10.40
2017-10-24T05:57:42.772Z,10.33
2017-10-24T05:58:42.734Z,10.35
2017-10-24T05:59:42.695Z,10.41
2017-10-24T06:00:42.658Z,10.42
2017-10-24T06:01:42.619Z,10.37
2017-10-24T06:02:42.587Z,10.38
2017-10-24T06:03:42.549Z,10.40
2017-10-24T06:04:42.511Z,10.41
2017-10-24T06:05:42.481Z,10.35
2017-10-24T06:06:42.433Z,10.38
2017-10-24T06:07:42.399Z,10.31
2017-10-24T06:08:42.361Z,10.41
2017-10-24T06:09:42.327Z,10.35
2017-10-24T06:10:42.289Z,10.48
2017-10-24T06:11:42.246Z,10.51
2017-10-24T06:12:42.222Z,10.38
2017-10-24T06:13:42.174Z,10.49
2017-10-24T06:14:42.138Z,10.46
2017-10-24T06:15:42.098Z,10.42
2017-10-24T06:16:42.059Z,10.49
2017-10-24T06:17:42.022Z,10.53
2017-10-24T06:18:41.987Z,10.46
2017-10-24T06:19:41.952Z,10.48
2017-10-24T06:20:41.914Z,10.48
2017-10-24T06:21:41.886Z,10.41
2017-10-24T06:22:41.836Z,10.48
2017-10-24T06:23:41.811Z,10.49
2017-10-24T06:24:41.761Z,10.46
2017-10-24T06:25:41.724Z,10.54
2017-10-24T06:26:41.692Z,10.42
2017-10-24T06:27:41.649Z,10.46
2017-10-24T06:28:41.610Z,10.49
2017-10-24T06:29:41.577Z,10.41
2017-10-24T06:30:41.546Z,10.44
2017-10-24T06:31:41.506Z,10.40
2017-10-24T06:32:41.462Z,10.46
2017-10-24T06:33:41.427Z,10.37
2017-10-24T06:34:41.389Z,10.48
2017-10-24T06:35:41.358Z,10.51
2017-10-24T06:36:41.316Z,10.53
2017-10-24T06:37:41.275Z,10.42
2017-10-24T06:38:41.247Z,10.42
2017-10-24T06:39:41.211Z,10.48
2017-10-24T06:40:41.160Z,10.53
2017-10-24T06:41:41.133Z,10.57
2017-10-24T06:42:41.083Z,10.56
2017-10-24T06:43:41.051Z,10.48
2017-10-24T06:44:41.015Z,10.53
2017-10-24T06:45:40.974Z,10.53
2017-10-24T06:46:40.939Z,10.54
2017-10-24T06:47:41.909Z,10.54
2017-10-24T06:48:40.865Z,10.60
2017-10-24T06:49:40.825Z,10.63
2017-10-24T06:50:40.801Z,10.63
2017-10-24T06:51:40.763Z,10.61
2017-10-24T06:52:40.715Z,10.67
2017-10-24T06:53:40.699Z,10.69
2017-10-24T06:54:40.651Z,10.74
2017-10-24T06:55:40.667Z,10.71
2017-10-24T06:56:40.597Z,10.79
2017-10-24T06:57:40.531Z,10.72
2017-10-24T06:58:40.489Z,10.86
2017-10-24T06:59:40.463Z,10.84
2017-10-24T07:00:40.416Z,10.90
2017-10-24T07:01:40.386Z,10.93
2017-10-24T07:02:40.351Z,10.87
2017-10-24T07:03:40.312Z,10.87
2017-10-24T07:04:40.277Z,10.97
2017-10-24T07:05:40.229Z,10.97
2017-10-24T07:06:40.193Z,10.99
2017-10-24T07:07:40.173Z,10.97
2017-10-24T07:08:40.153Z,10.96
2017-10-24T07:09:40.090Z,10.99
2017-10-24T07:10:40.068Z,11.04
2017-10-24T07:11:41.918Z,11.10
2017-10-24T07:12:39.972Z,11.11
2017-10-24T07:13:39.936Z,11.19
2017-10-24T07:14:39.904Z,11.22
2017-10-24T07:15:39.859Z,11.27
2017-10-24T07:16:39.830Z,11.25
2017-10-24T07:17:39.789Z,11.32
2017-10-24T07:18:39.750Z,11.33
2017-10-24T07:19:39.710Z,11.43
2017-10-24T07:20:39.676Z,11.45
2017-10-24T07:21:39.638Z,11.45
2017-10-24T07:22:39.600Z,11.47
2017-10-24T07:23:39.569Z,11.47
2017-10-24T07:24:39.527Z,11.50
2017-10-24T07:25:39.490Z,11.51
2017-10-24T07:26:39.452Z,11.48
2017-10-24T07:27:39.418Z,11.54
2017-10-24T07:28:39.378Z,11.55
2017-10-24T07:29:39.343Z,11.62
2017-10-24T07:30:39.307Z,11.57
2017-10-24T07:31:39.270Z,11.54
2017-10-24T07:32:39.233Z,11.55
2017-10-24T07:33:39.200Z,11.55
2017-10-24T07:34:39.155Z,11.62
2017-10-24T07:35:39.128Z,11.55
2017-10-24T07:36:39.091Z,11.45
2017-10-24T07:37:39.049Z,11.52
2017-10-24T07:38:39.011Z,11.55
2017-10-24T07:39:38.976Z,11.55
2017-10-24T07:40:38.951Z,11.57
2017-10-24T07:41:38.910Z,11.55
2017-10-24T07:42:38.865Z,11.54
2017-10-24T07:43:38.823Z,11.50
2017-10-24T07:44:38.790Z,11.48
2017-10-24T07:45:38.754Z,11.44
2017-10-24T07:46:38.722Z,11.47
2017-10-24T07:47:38.684Z,11.48
2017-10-24T07:48:38.645Z,11.59
2017-10-24T07:49:38.622Z,11.66
2017-10-24T07:50:38.578Z,11.63
2017-10-24T07:51:38.626Z,11.57
2017-10-24T07:52:38.503Z,11.62
2017-10-24T07:53:38.472Z,11.65
2017-10-24T07:54:38.437Z,11.65
2017-10-24T07:55:38.393Z,11.59
2017-10-24T07:56:38.355Z,11.57
2017-10-24T07:57:38.318Z,11.69
2017-10-24T07:58:38.283Z,11.60
2017-10-24T07:59:38.245Z,11.68
2017-10-24T08:00:38.232Z,11.66
2017-10-24T08:01:38.174Z,11.66
2017-10-24T08:02:38.140Z,11.69
2017-10-24T08:03:38.101Z,11.62
2017-10-24T08:04:38.059Z,11.68
2017-10-24T08:05:38.048Z,11.66
2017-10-24T08:06:37.989Z,11.66
2017-10-24T08:07:37.982Z,11.77
2017-10-24T08:08:37.915Z,11.72
2017-10-24T08:09:37.896Z,11.81
2017-10-24T08:10:37.848Z,11.75
2017-10-24T08:11:37.808Z,11.81
2017-10-24T08:12:37.779Z,11.88
2017-10-24T08:13:37.739Z,11.80
2017-10-24T08:14:37.697Z,11.81
2017-10-24T08:15:37.661Z,11.94
2017-10-24T08:16:37.641Z,11.94
2017-10-24T08:17:37.588Z,12.02
2017-10-24T08:18:37.560Z,12.04
2017-10-24T08:19:37.514Z,12.07
2017-10-24T08:20:37.483Z,12.04
2017-10-24T08:21:37.445Z,12.09
2017-10-24T08:22:37.407Z,11.99
2017-10-24T08:23:37.376Z,12.03
2017-10-24T08:24:37.349Z,12.02
2017-10-24T08:25:37.304Z,12.07
2017-10-24T08:26:37.269Z,12.21
2017-10-24T08:27:37.229Z,12.18
2017-10-24T08:28:37.187Z,12.22
2017-10-24T08:29:37.159Z,12.24
2017-10-24T08:30:37.120Z,12.31
2017-10-24T08:31:37.079Z,12.40
2017-10-24T08:32:37.045Z,12.42
2017-10-24T08:33:37.019Z,12.55
2017-10-24T08:34:36.976Z,12.53
2017-10-24T08:35:36.934Z,12.62
2017-10-24T08:36:36.982Z,12.68
2017-10-24T08:37:36.872Z,12.53
2017-10-24T08:38:36.831Z,12.50
2017-10-24T08:39:36.791Z,12.61
2017-10-24T08:40:36.762Z,12.72
2017-10-24T08:41:36.723Z,12.67
2017-10-24T08:42:36.721Z,12.68
2017-10-24T08:43:36.649Z,12.79
2017-10-24T08:44:36.617Z,12.79
2017-10-24T08:45:36.604Z,12.87
2017-10-24T08:46:36.549Z,12.93
2017-10-24T08:47:36.521Z,13.01
2017-10-24T08:48:36.479Z,13.11
2017-10-24T08:49:36.449Z,13.01
2017-10-24T08:50:36.402Z,13.01
2017-10-24T08:51:36.375Z,12.86
2017-10-24T08:52:36.341Z,12.94
2017-10-24T08:53:36.311Z,12.95
2017-10-24T08:54:36.261Z,12.97
2017-10-24T08:55:36.232Z,13.00
2017-10-24T08:56:36.185Z,13.05
2017-10-24T08:57:36.167Z,13.12
2017-10-24T08:58:36.140Z,13.15
2017-10-24T08:59:36.096Z,13.15
2017-10-24T09:00:36.056Z,13.28
2017-10-24T09:01:36.016Z,13.35
2017-10-24T09:02:35.978Z,13.37
2017-10-24T09:03:35.975Z,13.35
2017-10-24T09:04:35.913Z,13.39
2017-10-24T09:05:35.869Z,13.44
2017-10-24T09:06:35.836Z,13.46
2017-10-24T09:07:35.840Z,13.30
2017-10-24T09:08:35.765Z,13.39
2017-10-24T09:09:35.728Z,13.50
2017-10-24T09:10:35.695Z,13.35
2017-10-24T09:11:35.664Z,13.39
2017-10-24T09:12:35.631Z,13.41
2017-10-24T09:13:35.597Z,13.39
2017-10-24T09:14:35.560Z,13.39
2017-10-24T09:15:35.515Z,13.44
2017-10-24T09:16:35.484Z,13.68
2017-10-24T09:17:35.467Z,13.68
2017-10-24T09:18:35.410Z,13.70
2017-10-24T09:19:35.402Z,13.81
2017-10-24T09:20:35.350Z,13.87
2017-10-24T09:21:35.307Z,13.87
2017-10-24T09:22:35.270Z,13.86
2017-10-24T09:23:35.239Z,13.89
2017-10-24T09:24:35.199Z,13.99
2017-10-24T09:25:35.167Z,14.04
2017-10-24T09:26:35.135Z,14.03
2017-10-24T09:27:35.105Z,14.20
2017-10-24T09:28:35.063Z,14.32
2017-10-24T09:29:35.040Z,14.47
2017-10-24T09:30:35.004Z,14.65
2017-10-24T09:31:34.959Z,14.69
2017-10-24T09:32:34.950Z,14.66
2017-10-24T09:33:34.890Z,14.78
2017-10-24T09:34:34.855Z,14.79
2017-10-24T09:35:34.824Z,14.91
2017-10-24T09:36:34.793Z,14.86
2017-10-24T09:37:34.767Z,14.89
2017-10-24T09:38:34.720Z,14.97
2017-10-24T09:39:34.694Z,15.07
2017-10-24T09:40:34.656Z,15.10
2017-10-24T09:41:34.625Z,15.15
2017-10-24T09:42:34.603Z,15.14
2017-10-24T09:43:34.549Z,14.97
2017-10-24T09:44:34.517Z,14.97
2017-10-24T09:45:34.513Z,14.96
2017-10-24T09:46:34.460Z,14.89
2017-10-24T09:47:34.439Z,14.79
2017-10-24T09:48:34.384Z,14.77
2017-10-24T09:49:34.353Z,14.66
2017-10-24T09:50:34.325Z,14.63
2017-10-24T09:51:34.287Z,14.58
2017-10-24T09:52:34.250Z,14.53
2017-10-24T09:53:34.220Z,14.43
2017-10-24T09:54:34.176Z,14.36
2017-10-24T09:55:34.166Z,14.35
2017-10-24T09:56:34.120Z,14.26
2017-10-24T09:57:34.083Z,14.25
2017-10-24T09:58:34.053Z,14.17
2017-10-24T09:59:34.015Z,14.07
2017-10-24T10:00:33.974Z,14.05
2017-10-24T10:01:33.953Z,14.05
2017-10-24T10:02:33.908Z,13.92
2017-10-24T10:03:33.886Z,13.83
2017-10-24T10:04:33.845Z,13.78
2017-10-24T10:05:33.819Z,13.77
2017-10-24T10:06:33.778Z,13.68
2017-10-24T10:07:33.745Z,13.70
2017-10-24T10:08:33.722Z,13.68
2017-10-24T10:09:33.671Z,13.62
2017-10-24T10:10:33.640Z,13.67
2017-10-24T10:11:33.608Z,13.67
2017-10-24T10:12:33.567Z,13.68
2017-10-24T10:13:33.547Z,13.68
2017-10-24T10:14:33.500Z,13.70
2017-10-24T10:15:33.491Z,13.74
2017-10-24T10:16:33.434Z,13.77
2017-10-24T10:17:33.401Z,13.70
2017-10-24T10:18:33.360Z,13.65
2017-10-24T10:19:33.334Z,13.78
2017-10-24T10:20:33.303Z,13.81
2017-10-24T10:21:33.261Z,13.78
2017-10-24T10:22:33.231Z,13.87
2017-10-24T10:23:33.188Z,13.90
2017-10-24T10:24:33.155Z,13.95
2017-10-24T10:25:33.139Z,13.83
2017-10-24T10:26:33.098Z,14.00
2017-10-24T10:27:33.066Z,14.07
2017-10-24T10:28:33.027Z,14.05
2017-10-24T10:29:32.981Z,14.10
2017-10-24T10:30:32.966Z,14.04
2017-10-24T10:31:32.919Z,14.05
2017-10-24T10:32:32.879Z,14.07
2017-10-24T10:33:32.856Z,14.04
2017-10-24T10:34:32.811Z,14.10
2017-10-24T10:35:32.800Z,14.11
2017-10-24T10:36:32.756Z,14.04
2017-10-24T10:37:32.713Z,13.95
2017-10-24T10:38:32.679Z,13.96
2017-10-24T10:39:32.642Z,13.95
2017-10-24T10:40:32.598Z,14.08
2017-10-24T10:41:32.591Z,14.07
2017-10-24T10:42:32.556Z,14.05
2017-10-24T10:43:32.520Z,14.12
2017-10-24T10:44:32.477Z,14.10
2017-10-24T10:45:32.437Z,14.26
2017-10-24T10:46:32.416Z,14.35
2017-10-24T10:47:32.363Z,14.43
2017-10-24T10:48:32.329Z,14.47
2017-10-24T10:49:32.293Z,14.55
2017-10-24T10:50:32.261Z,14.66
2017-10-24T10:51:32.241Z,14.66
2017-10-24T10:52:32.190Z,14.78
2017-10-24T10:53:32.161Z,14.79
2017-10-24T10:54:32.166Z,14.84
2017-10-24T10:55:32.087Z,14.68
2017-10-24T10:56:32.070Z,14.79
2017-10-24T10:57:32.021Z,14.79
2017-10-24T10:58:31.994Z,14.73
2017-10-24T10:59:31.949Z,14.72
2017-10-24T11:00:31.921Z,14.86
2017-10-24T11:01:31.885Z,14.79
2017-10-24T11:02:31.850Z,14.79
2017-10-24T11:03:31.825Z,14.84
2017-10-24T11:04:31.793Z,14.78
2017-10-24T11:05:31.755Z,14.63
2017-10-24T11:06:31.714Z,14.60
2017-10-24T11:07:31.679Z,14.60
2017-10-24T11:08:31.646Z,14.51
2017-10-24T11:09:31.611Z,14.45
2017-10-24T11:10:31.574Z,14.44
2017-10-24T11:11:31.615Z,14.37
2017-10-24T11:12:31.531Z,14.48
2017-10-24T11:13:31.490Z,14.53
2017-10-24T11:14:31.448Z,14.50
2017-10-24T11:15:31.410Z,14.47
2017-10-24T11:16:31.375Z,14.44
2017-10-24T11:17:31.348Z,14.47
2017-10-24T11:18:31.336Z,14.41
2017-10-24T11:19:31.985Z,14.36
2017-10-24T11:20:32.003Z,14.36
2017-10-24T11:21:31.251Z,14.43
2017-10-24T11:22:31.175Z,14.45
2017-10-24T11:23:31.134Z,14.55
2017-10-24T11:24:31.108Z,14.68
2017-10-24T11:25:31.080Z,14.73
2017-10-24T11:26:31.097Z,14.91
2017-10-24T11:27:31.015Z,15.04
2017-10-24T11:28:30.972Z,15.11
2017-10-24T11:29:30.986Z,15.10
2017-10-24T11:30:30.897Z,15.18
2017-10-24T11:31:30.876Z,15.24
2017-10-24T11:32:30.888Z,15.28
2017-10-24T11:33:30.876Z,15.24
2017-10-24T11:34:30.758Z,15.18
2017-10-24T11:35:30.753Z,15.18
2017-10-24T11:36:30.692Z,15.14
2017-10-24T11:37:30.657Z,15.14
2017-10-24T11:38:30.633Z,15.11
2017-10-24T11:39:30.590Z,15.04
2017-10-24T11:40:30.559Z,15.06
2017-10-24T11:41:30.520Z,15.11
2017-10-24T11:42:30.487Z,15.17
2017-10-24T11:43:30.454Z,15.17
2017-10-24T11:44:30.426Z,15.17
2017-10-24T11:45:30.387Z,15.21
2017-10-24T11:46:30.970Z,15.33
2017-10-24T11:47:30.327Z,15.37
2017-10-24T11:48:30.289Z,15.40
2017-10-24T11:49:30.260Z,15.52
2017-10-24T11:50:30.237Z,15.51
2017-10-24T11:51:30.199Z,15.49
2017-10-24T11:52:30.152Z,15.51
2017-10-24T11:53:30.142Z,15.51
2017-10-24T11:54:30.083Z,15.47
2017-10-24T11:55:30.050Z,15.57
2017-10-24T11:56:30.018Z,15.59
2017-10-24T11:57:29.990Z,15.72
2017-10-24T11:58:29.965Z,15.73
2017-10-24T11:59:29.915Z,15.82
2017-10-24T12:00:29.887Z,15.83
2017-10-24T12:01:29.851Z,15.70
2017-10-24T12:02:29.819Z,15.76
2017-10-24T12:03:29.790Z,15.72
2017-10-24T12:04:29.746Z,15.76
2017-10-24T12:05:29.716Z,15.67
2017-10-24T12:06:29.685Z,15.54
2017-10-24T12:07:29.675Z,15.57
2017-10-24T12:08:29.621Z,15.59
2017-10-24T12:09:29.588Z,15.52
2017-10-24T12:10:29.552Z,15.58
2017-10-24T12:11:29.516Z,15.58
2017-10-24T12:12:29.484Z,15.57
2017-10-24T12:13:29.481Z,15.75
2017-10-24T12:14:29.425Z,15.79
2017-10-24T12:15:29.385Z,15.91
2017-10-24T12:16:29.352Z,15.97
2017-10-24T12:17:29.321Z,16.13
2017-10-24T12:18:29.285Z,16.17
2017-10-24T12:19:29.262Z,16.13
2017-10-24T12:20:29.222Z,16.08
2017-10-24T12:21:29.187Z,16.01
2017-10-24T12:22:29.161Z,15.94
2017-10-24T12:23:29.994Z,15.82
2017-10-24T12:24:29.115Z,15.54
2017-10-24T12:25:29.066Z,15.44
2017-10-24T12:26:29.028Z,15.43
2017-10-24T12:27:28.993Z,15.35
2017-10-24T12:28:28.963Z,15.28
2017-10-24T12:29:28.928Z,15.25
2017-10-24T12:30:28.893Z,15.27
2017-10-24T12:31:28.863Z,15.18
2017-10-24T12:32:28.826Z,15.28
2017-10-24T12:33:28.795Z,15.51
2017-10-24T12:34:28.772Z,15.49
2017-10-24T12:35:28.733Z,15.72
2017-10-24T12:36:28.704Z,15.76
2017-10-24T12:37:28.670Z,15.91
2017-10-24T12:38:28.648Z,15.97
2017-10-24T12:39:28.594Z,16.10
2017-10-24T12:40:28.565Z,16.16
2017-10-24T12:41:28.545Z,16.16
2017-10-24T12:42:28.509Z,16.13
2017-10-24T12:43:28.472Z,16.05
2017-10-24T12:44:28.436Z,15.98
2017-10-24T12:45:28.428Z,16.00
2017-10-24T12:46:28.370Z,15.84
2017-10-24T12:47:28.339Z,15.94
2017-10-24T12:48:28.305Z,15.79
2017-10-24T12:49:28.314Z,15.73
2017-10-24T12:50:28.242Z,15.68
2017-10-24T12:51:28.198Z,15.55
2017-10-24T12:52:28.175Z,15.55
2017-10-24T12:53:28.147Z,15.58
2017-10-24T12:54:28.101Z,15.57
2017-10-24T12:55:28.072Z,15.49
2017-10-24T12:56:28.038Z,15.44
2017-10-24T12:57:28.006Z,15.46
2017-10-24T12:58:27.970Z,15.58
2017-10-24T12:59:27.944Z,15.75